Latest Weather Observations for Cloncurry

IDQ60801

Issued at 7:32 pm EST Sunday 25 February 2018 (issued every 30 minutes, with the page automatically refreshed every 10 minutes)

About weather observations | Map of weather stations | Latest weather observations for QLD | Other Formats
Station Details ID: 029141 Name: CLONCURRY AIRPORT Lat: -20.67 Lon: 140.50 Height: 186.0 m
Data from the previous 72 hours. | See also: Recent months at Cloncurry
Date/Time
EST
Temp
°C
App
Temp
°C
Dew
Point
°C
Rel
Hum
%
Delta-T
°C
Wind Press
QNH
hPa
Press
MSL
hPa
Rain since
9am
mm
Dir  Spd
km/h
Gust
km/h
Spd
kts
Gust
kts
25/07:30pm 32.9 32.5 19.4 45 9.0 NNE 20 28 11 15 1004.4 1003.0 0.2
25/07:00pm 34.0 33.8 16.8 35 11.1 NNE 13 20 7 11 1003.6 1002.1 0.2
25/06:30pm 34.6 33.7 16.9 35 11.4 NNE 17 22 9 12 1003.3 1001.8 0.2
25/06:00pm 35.1 33.6 17.8 36 11.3 NE 22 28 12 15 1003.1 1001.6 0.2
25/05:30pm 35.5 33.3 16.8 33 12.0 NNE 24 35 13 19 1002.8 1001.3 0.2
25/05:00pm 35.8 35.1 15.5 29 12.9 ENE 13 24 7 13 1002.8 1001.3 0.2
25/04:30pm 39.6 36.3 11.7 19 17.0 SW 20 35 11 19 1002.5 1001.0 0.2
25/04:00pm 38.9 36.1 13.3 22 15.9 SW 20 32 11 17 1002.5 1001.0 0.2
25/03:30pm 37.4 35.8 16.4 29 13.5 SSW 20 28 11 15 1003.2 1001.7 0.2
25/03:00pm 36.8 37.1 16.9 31 12.9 SW 11 20 6 11 1003.6 1002.1 0.2
25/02:30pm 36.7 36.4 17.3 31 12.6 SE 15 28 8 15 1004.3 1002.9 0.2
25/02:00pm 36.6 36.6 17.2 31 12.6 SSW 13 24 7 13 1004.9 1003.5 0.2
25/01:30pm 36.5 35.7 17.1 31 12.6 ESE 17 24 9 13 1005.3 1003.9 0.2
25/01:00pm 36.0 35.0 16.7 31 12.5 S 17 24 9 13 1005.7 1004.3 0.2
25/12:30pm 35.4 35.4 18.9 37 10.9 S 17 30 9 16 1006.2 1004.8 0.2
25/12:00pm 33.6 34.9 19.3 43 9.5 SSW 11 20 6 11 1006.6 1005.2 0.2
25/11:30am 33.3 35.5 20.5 47 8.6 W 9 13 5 7 1006.8 1005.4 0.2
25/11:00am 32.1 34.5 21.6 53 7.2 W 11 19 6 10 1007.0 1005.6 0.2
25/10:30am 29.9 31.8 21.3 60 5.8 W 13 20 7 11 1007.3 1005.9 0.2
25/10:00am 28.5 29.6 21.3 65 4.8 WNW 17 22 9 12 1007.6 1006.2 0.2
25/09:30am 27.8 29.7 21.3 67 4.4 WNW 13 17 7 9 1008.1 1006.6 0.0
25/09:00am 26.6 29.1 21.8 75 3.2 NNW 11 15 6 8 1008.2 1006.7 5.2
25/08:30am 25.5 28.1 22.0 81 2.4 N 11 15 6 8 1008.1 1006.6 5.2
25/08:00am 24.5 27.3 21.6 84 1.9 NNE 9 13 5 7 1008.2 1006.7 5.2
25/07:30am 24.1 27.4 21.8 87 1.5 NNE 7 11 4 6 1008.2 1006.7 5.2
25/07:00am 23.9 25.8 21.4 86 1.7 NNE 13 15 7 8 1008.2 1006.7 5.2
25/06:30am 24.2 26.4 21.9 87 1.5 NNE 13 15 7 8 1008.1 1006.6 5.2
25/06:00am 24.2 25.9 21.7 86 1.7 NNE 15 19 8 10 1007.8 1006.4 5.2
25/05:30am 24.8 27.0 21.9 84 1.9 NE 13 20 7 11 1007.5 1006.1 5.2
25/05:00am 25.0 27.7 22.1 84 2.0 NE 11 15 6 8 1007.0 1005.6 5.2
25/04:30am 25.0 27.1 21.7 82 2.2 NE 13 17 7 9 1007.0 1005.6 5.2
25/04:00am 26.4 29.2 22.3 78 2.8 N 11 13 6 7 1006.7 1005.3 5.2
25/03:30am 26.4 27.8 21.8 76 3.1 N 17 20 9 11 1006.5 1005.1 5.2
25/03:00am 26.3 31.1 22.2 78 2.8 CALM 0 0 0 0 1007.0 1005.6 5.2
25/02:30am 26.6 29.6 22.0 76 3.1 N 9 11 5 6 1006.8 1005.4 5.2
25/02:00am 26.3 29.4 22.2 78 2.8 N 9 11 5 6 1006.6 1005.2 5.2
25/01:30am 26.1 28.5 21.5 76 3.1 N 11 13 6 7 1006.8 1005.4 5.2
25/01:00am 26.7 28.5 21.9 75 3.2 N 15 20 8 11 1006.6 1005.2 5.2
25/12:30am 27.2 30.3 22.8 77 3.0 NNE 11 17 6 9 1007.2 1005.8 5.0
25/12:00am 27.6 31.6 23.8 80 2.6 ENE 9 15 5 8 1007.5 1006.1 4.0
 
Date/Time
EST
Temp
°C
App
Temp
°C
Dew
Point
°C
Rel
Hum
%
Delta-T
°C
Wind Press
QNH
hPa
Press
MSL
hPa
Rain since
9am
mm
Dir  Spd
km/h
Gust
km/h
Spd
kts
Gust
kts
24/11:30pm 27.4 31.2 23.4 79 2.8 NE 9 13 5 7 1007.0 1005.6 4.0
24/11:00pm 27.9 31.2 22.6 73 3.6 NNW 9 11 5 6 1007.1 1005.7 4.0
24/10:30pm 28.0 31.0 22.0 70 4.1 NNW 9 11 5 6 1006.9 1005.5 4.0
24/10:00pm 27.9 30.2 21.4 67 4.4 NNW 11 13 6 7 1006.5 1005.1 4.0
24/09:30pm 27.9 31.0 21.4 67 4.4 NNW 7 9 4 5 1006.7 1005.3 4.0
24/09:00pm 28.2 29.5 20.2 62 5.3 NNW 13 20 7 11 1006.3 1004.9 4.0
24/08:30pm 28.2 30.4 21.2 65 4.7 NNW 11 15 6 8 1005.4 1004.0 4.0
24/08:00pm 28.2 29.8 20.0 61 5.4 N 11 13 6 7 1004.9 1003.5 4.0
24/07:30pm 28.3 28.6 19.5 59 5.8 N 17 22 9 12 1004.3 1002.9 4.0
24/07:00pm 28.1 26.7 20.4 63 5.1 N 28 35 15 19 1004.4 1003.0 4.0
24/06:30pm 28.5 28.9 21.8 67 4.5 N 22 33 12 18 1004.3 1002.9 4.0
24/06:00pm 27.5 26.5 22.0 72 3.7 E 30 63 16 34 1004.0 1002.5 4.0
24/05:55pm 28.4 25.6 22.4 70 4.1 ESE 41 82 22 44 1003.9 1002.4 4.0
24/05:53pm 26.4 22.7 21.6 75 3.2 ESE 43 82 23 44 1004.0 1002.5 4.0
24/05:50pm 26.2 21.7 21.0 73 3.5 SE 46 82 25 44 1003.9 1002.4 3.2
24/05:48pm 26.3 23.7 21.5 75 3.2 SSE 37 82 20 44 1004.0 1002.5 2.6
24/05:47pm 27.7 26.3 22.2 72 3.7 SSE 33 63 18 34 1004.2 1002.8 2.0
24/05:43pm 27.8 25.9 21.3 67 4.4 SSE 33 56 18 30 1004.0 1002.5 1.4
24/05:35pm 28.7 24.4 21.5 65 4.8 S 46 69 25 37 1003.9 1002.4 0.0
24/05:30pm 28.8 25.3 20.3 60 5.6 SW 39 69 21 37 1003.7 1002.2 0.0
24/05:28pm 30.4 27.4 19.1 50 7.4 WSW 33 69 18 37 1003.9 1002.4 0.0
24/05:26pm 33.2 30.6 17.8 40 10.0 W 28 69 15 37 1004.0 1002.5 0.0
24/05:25pm 35.0 32.8 16.8 34 11.7 WNW 24 48 13 26 1003.8 1002.3 0.0
24/05:23pm 35.0 33.7 16.8 34 11.7 WNW 19 44 10 24 1003.4 1001.9 0.0
24/05:00pm 37.7 37.5 16.6 28 13.7 N 13 20 7 11 1002.6 1001.1 0.0
24/04:30pm 37.9 37.4 16.8 29 13.7 NNW 15 24 8 13 1002.6 1001.1 0.0
24/04:00pm 37.7 37.5 16.6 28 13.7 W 13 20 7 11 1002.9 1001.4 0.0
24/03:30pm 36.9 37.2 17.0 31 12.9 N 11 17 6 9 1003.4 1001.9 0.0
24/03:00pm 37.1 37.9 18.1 32 12.5 NNW 11 17 6 9 1004.0 1002.5 0.0
24/02:30pm 36.9 37.3 18.9 34 12.0 N 15 24 8 13 1004.2 1002.8 0.0
24/02:00pm 35.8 35.0 17.9 34 11.7 NNE 19 30 10 16 1004.9 1003.5 0.0
24/01:30pm 35.1 34.6 19.1 39 10.6 NW 20 30 11 16 1005.7 1004.3 0.0
24/01:00pm 34.6 34.4 19.8 41 9.9 NW 20 30 11 16 1006.2 1004.8 0.0
24/12:30pm 34.2 34.0 20.6 45 9.2 NNW 22 33 12 18 1006.6 1005.2 0.0
24/12:00pm 33.0 33.2 20.5 47 8.4 N 20 30 11 16 1006.9 1005.5 0.0
24/11:30am 32.5 32.9 21.0 50 7.8 NNW 20 30 11 16 1007.2 1005.8 0.0
24/11:00am 31.9 31.5 20.2 50 7.8 NW 22 28 12 15 1007.5 1006.1 0.0
24/10:30am 31.2 32.4 22.2 58 6.2 WNW 19 26 10 14 1007.7 1006.3 0.0
24/10:00am 29.6 30.3 22.3 65 5.0 NNW 22 28 12 15 1008.0 1006.5 0.0
24/09:30am 29.2 30.3 22.4 66 4.6 N 20 28 11 15 1008.1 1006.6 0.0
24/09:00am 28.7 29.4 22.2 68 4.4 N 22 28 12 15 1008.1 1006.6 0.0
24/08:30am 28.3 29.5 22.5 71 4.0 NNW 20 30 11 16 1007.7 1006.3 0.0
24/08:00am 27.8 29.3 22.7 74 3.5 N 19 26 10 14 1007.6 1006.2 0.0
24/07:30am 27.1 29.1 22.9 78 2.9 N 17 20 9 11 1007.2 1005.8 0.0
24/07:00am 26.8 29.0 22.6 78 2.9 N 15 20 8 11 1006.8 1005.4 0.0
24/06:30am 26.7 28.8 22.5 78 2.9 N 15 20 8 11 1006.6 1005.2 0.0
24/06:00am 26.7 28.5 22.5 78 2.9 N 17 20 9 11 1006.4 1005.0 0.0
24/05:30am 26.6 27.8 22.2 77 3.0 N 19 26 10 14 1006.0 1004.6 0.0
24/05:00am 26.9 28.2 22.3 76 3.1 N 19 24 10 13 1005.8 1004.4 0.0
24/04:30am 27.1 28.7 22.1 74 3.4 N 17 22 9 12 1005.7 1004.3 0.0
24/04:00am 27.2 29.0 21.9 73 3.6 N 15 20 8 11 1005.4 1004.0 0.0
24/03:30am 27.5 29.0 22.0 72 3.7 N 17 20 9 11 1005.4 1004.0 0.0
24/03:00am 27.7 30.0 22.0 71 3.9 N 13 17 7 9 1005.5 1004.1 0.0
24/02:30am 27.6 29.6 21.6 70 4.0 N 13 17 7 9 1005.6 1004.2 0.0
24/02:00am 27.8 30.0 21.8 70 4.1 N 13 15 7 8 1005.5 1004.1 0.0
24/01:30am 27.9 30.3 22.2 71 3.9 NNE 13 17 7 9 1005.8 1004.4 0.0
24/01:00am 28.0 30.4 22.2 70 3.9 NNE 13 17 7 9 1005.6 1004.2 0.0
24/12:30am 28.4 30.2 21.9 68 4.4 N 15 20 8 11 1005.5 1004.1 0.0
24/12:00am 28.0 30.2 21.1 66 4.6 NNW 11 15 6 8 1005.8 1004.4 0.0
 
Date/Time
EST
Temp
°C
App
Temp
°C
Dew
Point
°C
Rel
Hum
%
Delta-T
°C
Wind Press
QNH
hPa
Press
MSL
hPa
Rain since
9am
mm
Dir  Spd
km/h
Gust
km/h
Spd
kts
Gust
kts
23/11:30pm 28.4 30.1 20.9 64 5.0 NNW 13 17 7 9 1005.9 1004.5 0.0
23/11:00pm 29.0 29.8 20.7 61 5.5 NNE 17 24 9 13 1006.2 1004.8 0.0
23/10:30pm 29.1 29.4 20.3 59 5.8 N 19 22 10 12 1006.1 1004.7 0.0
23/10:00pm 29.4 30.0 20.3 58 6.1 NNE 17 24 9 13 1006.3 1004.9 0.0
23/09:30pm 29.1 31.5 22.3 66 4.6 NNE 13 19 7 10 1005.7 1004.3 0.0
23/09:00pm 29.4 32.4 22.6 67 4.7 N 11 13 6 7 1005.0 1003.6 0.0
23/08:30pm 29.7 32.7 21.9 63 5.3 NW 9 15 5 8 1004.3 1002.9 0.0
23/08:00pm 29.9 32.2 22.1 63 5.3 NW 13 15 7 8 1003.7 1002.2 0.0
23/07:30pm 30.2 33.3 22.1 62 5.5 NW 9 15 5 8 1003.3 1001.8 0.0
23/07:00pm 30.3 32.5 21.9 60 5.7 NNW 13 19 7 10 1002.4 1000.9 0.0
23/06:30pm 30.1 32.6 21.7 60 5.7 NNW 11 15 6 8 1002.8 1001.3 0.0
23/06:00pm 30.2 31.6 21.0 58 6.2 N 15 19 8 10 1002.9 1001.4 0.0
23/05:30pm 29.5 30.7 21.4 61 5.5 N 17 24 9 13 1001.6 1000.2 0.0
23/05:00pm 27.6 25.3 20.2 64 4.9 NNW 32 41 17 22 1002.5 1001.0 0.0
23/04:42pm 29.3 27.0 20.2 58 6.0 N 32 54 17 29 1002.4 1000.9 0.0
23/04:30pm 31.7 29.0 19.3 47 8.2 NE 32 39 17 21 1001.7 1000.3 0.0
23/04:28pm 32.1 29.3 19.0 45 8.6 NE 32 39 17 21 1001.6 1000.2 0.0
23/04:00pm 32.5 29.4 20.4 49 8.1 ENE 37 46 20 25 1001.4 1000.0 0.0
23/03:30pm 35.0 32.9 20.5 42 9.8 E 32 41 17 22 1001.4 1000.0 0.0
23/03:00pm 36.2 35.3 16.9 32 12.5 N 17 28 9 15 1001.8 1000.4 0.0
23/02:30pm 35.7 35.6 18.7 36 11.2 N 17 28 9 15 1002.4 1000.9 0.0
23/02:00pm 35.1 34.8 19.1 39 10.6 NNE 19 32 10 17 1003.0 1001.5 0.0
23/01:30pm 34.1 33.7 19.4 42 9.8 NNE 20 30 11 16 1003.4 1001.9 0.0
23/01:00pm 34.3 35.5 20.7 45 9.2 NNE 15 24 8 13 1003.7 1002.2 0.0
23/12:30pm 34.0 34.8 20.7 45 9.0 NNE 17 24 9 13 1004.0 1002.5 0.0
23/12:00pm 32.8 34.0 20.7 49 8.2 ENE 15 26 8 14 1004.4 1003.0 0.0
23/11:30am 32.3 34.4 20.9 51 7.7 NNE 11 24 6 13 1004.7 1003.3 0.0
23/11:00am 31.7 34.5 21.5 54 6.9 N 9 17 5 9 1005.0 1003.6 0.0
23/10:30am 30.7 33.3 21.2 57 6.4 NNE 9 17 5 9 1005.4 1004.0 0.0
23/10:00am 30.2 33.6 21.6 60 5.8 N 6 15 3 8 1005.6 1004.2 0.0
23/09:30am 29.2 32.2 21.2 62 5.4 N 7 13 4 7 1005.9 1004.5 0.0
23/09:00am 28.0 30.5 21.1 66 4.6 NE 9 13 5 7 1005.9 1004.5 0.0
23/08:30am 26.9 29.9 21.2 71 3.8 N 7 13 4 7 1005.8 1004.4 0.0
23/08:00am 26.0 27.8 21.2 75 3.2 N 13 19 7 10 1005.7 1004.3 0.0
23/07:30am 26.1 27.7 21.5 76 3.1 N 15 19 8 10 1005.4 1004.0 0.0
23/07:00am 26.0 27.3 21.7 77 2.9 NNE 17 20 9 11 1005.1 1003.7 0.0
23/06:30am 26.2 26.9 21.6 76 3.1 NNE 20 26 11 14 1004.6 1003.2 0.0
23/06:00am 26.5 27.3 21.7 75 3.2 NE 20 26 11 14 1004.5 1003.1 0.0
23/05:30am 26.6 28.0 21.8 75 3.2 NNE 17 20 9 11 1004.2 1002.8 0.0
23/05:00am 26.9 29.1 21.9 74 3.4 NNE 13 19 7 10 1003.8 1002.3 0.0
23/04:30am 26.7 28.4 21.7 74 3.4 NE 15 22 8 12 1003.7 1002.2 0.0
23/04:00am 26.8 28.6 21.1 71 3.8 ENE 13 15 7 8 1003.6 1002.1 0.0
23/03:30am 26.9 28.5 20.7 69 4.1 ENE 13 15 7 8 1003.6 1002.1 0.0
23/03:00am 27.0 28.5 21.3 71 3.8 E 15 19 8 10 1003.6 1002.1 0.0
23/02:30am 27.0 28.1 21.3 71 3.8 E 17 20 9 11 1003.6 1002.1 0.0
23/02:00am 27.6 28.3 21.2 68 4.3 ENE 19 24 10 13 1003.7 1002.2 0.0
23/01:30am 27.8 28.4 22.1 71 3.9 NE 22 28 12 15 1003.7 1002.2 0.0
23/01:00am 28.2 29.3 22.0 69 4.2 NE 19 22 10 12 1004.1 1002.7 0.0
23/12:30am 28.2 30.6 22.2 70 4.1 NNE 13 17 7 9 1004.0 1002.5 0.0
23/12:00am 28.2 31.1 21.7 68 4.4 N 9 15 5 8 1003.6 1002.1 0.0
 
Date/Time
EST
Temp
°C
App
Temp
°C
Dew
Point
°C
Rel
Hum
%
Delta-T
°C
Wind Press
QNH
hPa
Press
MSL
hPa
Rain since
9am
mm
Dir  Spd
km/h
Gust
km/h
Spd
kts
Gust
kts
22/11:30pm 28.4 31.1 21.4 66 4.7 N 9 13 5 7 1003.3 1001.8 0.0
22/11:00pm 28.8 30.7 21.3 64 5.1 N 13 15 7 8 1003.6 1002.1 0.0
22/10:30pm 28.8 30.6 21.1 63 5.2 NNW 13 17 7 9 1003.7 1002.2 0.0
22/10:00pm 28.9 30.8 21.4 64 5.1 N 13 17 7 9 1003.6 1002.1 0.0
22/09:30pm 28.9 29.7 21.7 65 4.9 NNE 20 30 11 16 1003.4 1001.9 0.0
22/09:00pm 29.0 28.9 22.2 66 4.6 NNE 26 33 14 18 1003.0 1001.5 0.0
22/08:30pm 29.1 28.6 22.1 66 4.8 NE 28 35 15 19 1002.5 1001.0 0.0
22/08:00pm 30.2 27.8 21.0 58 6.2 ENE 35 44 19 24 1001.7 1000.3 0.0

Other Formats:

Comma delimited format used in spreadsheet applications
http://www.bom.gov.au/fwo/IDQ60801/IDQ60801.94335.axf

JavaScript Object Notation format (JSON) in row-major order
http://www.bom.gov.au/fwo/IDQ60801/IDQ60801.94335.json